| Date | Time | Temp. (oF) | Dew Point (oF) | Rel. Hum. (%) | Press. (in.) | Wind Dir. | Wind Speed (mph) | Hourly Rainfall (in.) |
|
|---|---|---|---|---|---|---|---|---|---|
| 1 | 10/20 | 00:00 | 57 | 52 | 85 | 29.93 | S | 1 | 0.00 |
| 2 | 10/19 | 23:00 | 58 | 52 | 81 | 29.93 | W | 1 | 0.00 |
| 3 | 10/19 | 22:00 | 59 | 52 | 79 | 29.92 | SW | 3 | 0.00 |
| 4 | 10/19 | 21:00 | 58 | 52 | 82 | 29.92 | SSW | 4 | 0.00 |
| 5 | 10/19 | 20:00 | 57 | 51 | 81 | 29.91 | SW | 2 | 0.00 |
| 6 | 10/19 | 19:00 | 57 | 50 | 80 | 29.91 | SW | 3 | 0.00 |
| 7 | 10/19 | 18:00 | 58 | 51 | 78 | 29.90 | SSW | 3 | 0.00 |
| 8 | 10/19 | 17:00 | 57 | 49 | 76 | 29.89 | SSW | 5 | 0.00 |
| 9 | 10/19 | 16:00 | 57 | 49 | 77 | 29.88 | SW | 7 | 0.00 |
| 10 | 10/19 | 15:00 | 56 | 50 | 83 | 29.89 | SSW | 4 | 0.00 |
| 11 | 10/19 | 14:00 | 52 | 49 | 91 | 29.90 | S | 12 | 0.00 |
| 12 | 10/19 | 13:00 | 52 | 48 | 89 | 29.93 | SSW | 5 | 0.01 |
| 13 | 10/19 | 12:00 | 51 | 47 | 87 | 30.00 | SSW | 3 | 0.00 |
| 14 | 10/19 | 11:00 | 51 | 46 | 86 | 30.01 | SSE | 15 | 0.00 |
| 15 | 10/19 | 10:00 | 51 | 46 | 84 | 30.02 | S | 7 | 0.00 |
| 16 | 10/19 | 09:00 | 50 | 44 | 82 | 30.04 | S | 5 | 0.00 |
| 17 | 10/19 | 08:00 | 49 | 44 | 84 | 30.04 | SSE | 5 | 0.00 |
| 18 | 10/19 | 07:00 | 48 | 44 | 86 | 30.05 | S | 6 | 0.00 |
| 19 | 10/19 | 06:00 | 45 | 41 | 89 | 30.08 | SSE | 1 | 0.00 |
| 20 | 10/19 | 05:00 | 47 | 42 | 84 | 30.10 | SSE | 4 | 0.00 |
| 21 | 10/19 | 04:00 | 47 | 42 | 84 | 30.10 | S | 6 | 0.00 |
| 22 | 10/19 | 03:00 | 47 | 43 | 89 | 30.12 | S | 4 | 0.00 |
| 23 | 10/19 | 02:00 | 48 | 44 | 89 | 30.14 | S | 6 | 0.00 |
| 24 | 10/19 | 01:00 | 48 | 44 | 89 | 30.16 | S | 5 | 0.00 |